Adams Lake, Indiana
Current Conditions -  °F | °C
As of 12:35 PM on Thursday 18 Dec 2014 (Local Time) from KANQ Reporting Station
Overcast Overcast  
Wind Chill: 17°   Ceiling: 1000
Heat Index: 27°   Visibility: 10mi
Dew Point: 25°   Wind: 9mph
Humidity: 93%   Direction: 260°W
Pressure: 30.21"   Gusts: NA
Location:  41.5677°N, 85.3125°W
Report Text: KANQ 181735Z AUTO 26008KT 10SM OVC010 M03/M04 A3021 RMK
Loading
Personal Weather Stations






























Interactive Weather Map New forecast layout! Learn more

10-Day Weather Forecast

Advertisements
Track Severe Weather on mobile